createdAt,value
2023-04-27T00:00:01.133Z,100182.38
2023-04-27T00:03:06.557Z,100185.28
2023-04-27T00:06:10.041Z,100179.56
2023-04-27T00:09:12.674Z,100174.28
2023-04-27T00:12:15.098Z,100176.31
2023-04-27T00:15:17.118Z,100176.66
2023-04-27T00:18:19.435Z,100178.59
2023-04-27T00:21:21.686Z,100175.19
2023-04-27T00:24:23.844Z,100177.31
2023-04-27T00:27:25.932Z,100172.16
2023-04-27T00:30:28.042Z,100169.78
2023-04-27T00:33:30.093Z,100172.41
2023-04-27T00:36:34.456Z,100168.12
2023-04-27T00:39:36.453Z,100169.03
2023-04-27T00:42:38.945Z,100165.56
2023-04-27T00:45:43.412Z,100162.94
2023-04-27T00:48:46.522Z,100166.31
2023-04-27T00:51:48.917Z,100163.47
2023-04-27T00:54:52.329Z,100167.06
2023-04-27T00:57:54.339Z,100166.22
2023-04-27T01:00:56.640Z,100161.78
2023-04-27T01:03:59.081Z,100162.63
2023-04-27T01:07:03.566Z,100169.97
2023-04-27T01:10:07.188Z,100176.34
2023-04-27T01:13:09.828Z,100184.16
2023-04-27T01:16:11.828Z,100176.19
2023-04-27T01:19:14.094Z,100181.31
2023-04-27T01:22:16.427Z,100179.56
2023-04-27T01:25:20.186Z,100182.06
2023-04-27T01:28:22.164Z,100179.53
2023-04-27T01:31:24.266Z,100173.56
2023-04-27T01:34:26.422Z,100177.19
2023-04-27T01:37:28.534Z,100175.69
2023-04-27T01:40:30.690Z,100172.50
2023-04-27T01:43:33.012Z,100192.72
2023-04-27T01:46:34.997Z,100191.28
2023-04-27T01:49:37.266Z,100192.91
2023-04-27T01:52:39.474Z,100197.16
2023-04-27T01:55:42.097Z,100197.38
2023-04-27T01:58:44.306Z,100206.91
2023-04-27T02:01:46.294Z,100208.69
2023-04-27T02:04:48.551Z,100204.41
2023-04-27T02:07:51.156Z,100206.87
2023-04-27T02:10:53.161Z,100209.53
2023-04-27T02:13:55.181Z,100205.94
2023-04-27T02:16:57.099Z,100208.69
2023-04-27T02:19:59.070Z,100203.44
2023-04-27T02:23:02.317Z,100201.75
2023-04-27T02:26:04.305Z,100193.06
2023-04-27T02:29:06.391Z,100201.50
2023-04-27T02:32:08.871Z,100199.78
2023-04-27T02:35:11.254Z,100211.81
2023-04-27T02:38:13.728Z,100213.34
2023-04-27T02:41:15.761Z,100217.56
2023-04-27T02:44:17.641Z,100219.50
2023-04-27T02:47:19.620Z,100221.56
2023-04-27T02:50:21.827Z,100215.47
2023-04-27T02:53:23.845Z,100218.00
2023-04-27T02:56:25.833Z,100216.31
2023-04-27T02:59:28.270Z,100212.88
2023-04-27T03:02:30.597Z,100211.06
2023-04-27T03:05:32.897Z,100224.06
2023-04-27T03:08:50.754Z,100220.59
2023-04-27T03:11:52.945Z,100221.38
2023-04-27T03:14:54.905Z,100227.53
2023-04-27T03:17:56.821Z,100228.44
2023-04-27T03:21:06.685Z,100230.34
2023-04-27T03:24:08.672Z,100231.44
2023-04-27T03:27:10.830Z,100233.41
2023-04-27T03:30:13.252Z,100234.44
2023-04-27T03:33:15.925Z,100235.44
2023-04-27T03:36:17.917Z,100219.94
2023-04-27T03:39:20.022Z,100228.62
2023-04-27T03:42:22.366Z,100228.62
2023-04-27T03:45:24.812Z,100235.78
2023-04-27T03:48:26.914Z,100240.28
2023-04-27T03:51:32.260Z,100231.84
2023-04-27T03:54:34.352Z,100237.13
2023-04-27T03:57:36.342Z,100244.31
2023-04-27T04:00:39.172Z,100245.31
2023-04-27T04:03:41.333Z,100252.38
2023-04-27T04:06:43.423Z,100254.25
2023-04-27T04:09:45.443Z,100253.44
2023-04-27T04:12:47.452Z,100257.81
2023-04-27T04:15:49.431Z,100256.31
2023-04-27T04:18:52.103Z,100265.91
2023-04-27T04:21:54.862Z,100262.53
2023-04-27T04:24:57.714Z,100266.91
2023-04-27T04:27:59.691Z,100262.53
2023-04-27T04:31:02.069Z,100258.88
2023-04-27T04:34:04.077Z,100268.44
2023-04-27T04:37:06.301Z,100271.88
2023-04-27T04:40:09.297Z,100275.97
2023-04-27T04:43:12.329Z,100275.75
2023-04-27T04:46:14.278Z,100278.88
2023-04-27T04:49:16.517Z,100288.69
2023-04-27T04:52:18.840Z,100291.28
2023-04-27T04:55:20.914Z,100294.94
2023-04-27T04:58:22.842Z,100294.13
2023-04-27T05:01:24.950Z,100294.47
2023-04-27T05:04:27.642Z,100284.87
2023-04-27T05:07:29.647Z,100291.22
2023-04-27T05:10:31.850Z,100293.09
2023-04-27T05:13:34.053Z,100289.81
2023-04-27T05:16:36.164Z,100290.69
2023-04-27T05:19:38.262Z,100290.22
2023-04-27T05:22:40.773Z,100290.03
2023-04-27T05:25:42.983Z,100285.66
2023-04-27T05:28:45.332Z,100277.91
2023-04-27T05:31:47.353Z,100283.25
2023-04-27T05:34:49.749Z,100286.81
2023-04-27T05:37:51.810Z,100297.63
2023-04-27T05:40:58.737Z,100294.94
2023-04-27T05:44:00.861Z,100300.81
2023-04-27T05:47:02.800Z,100297.03
2023-04-27T05:50:05.397Z,100304.69
2023-04-27T05:53:07.837Z,100305.47
2023-04-27T05:56:11.813Z,100305.75
2023-04-27T05:59:13.979Z,100302.16
2023-04-27T06:02:18.327Z,100302.44
2023-04-27T06:05:20.799Z,100306.72
2023-04-27T06:11:42.682Z,100306.59
2023-04-27T06:14:44.724Z,100312.44
2023-04-27T06:17:46.888Z,100314.00
2023-04-27T06:20:48.900Z,100320.50
2023-04-27T06:23:50.892Z,100323.06
2023-04-27T06:26:52.869Z,100324.53
2023-04-27T06:29:54.850Z,100328.63
2023-04-27T06:32:56.940Z,100324.22
2023-04-27T06:35:58.951Z,100322.69
2023-04-27T06:39:01.027Z,100326.69
2023-04-27T06:42:06.571Z,100335.97
2023-04-27T06:45:08.722Z,100321.06
2023-04-27T06:48:10.862Z,100337.38
2023-04-27T06:51:13.688Z,100336.72
2023-04-27T06:54:15.801Z,100340.16
2023-04-27T06:57:17.755Z,100328.50
2023-04-27T07:00:20.164Z,100329.56
2023-04-27T07:03:22.542Z,100330.09
2023-04-27T07:06:26.074Z,100329.22
2023-04-27T07:09:29.224Z,100326.59
2023-04-27T07:12:31.468Z,100322.22
2023-04-27T07:15:34.168Z,100323.16
2023-04-27T07:18:36.352Z,100322.47
2023-04-27T07:21:38.455Z,100324.87
2023-04-27T07:24:40.395Z,100333.69
2023-04-27T07:27:42.982Z,100334.03
2023-04-27T07:30:44.955Z,100334.12
2023-04-27T07:33:46.938Z,100335.84
2023-04-27T07:36:48.880Z,100338.91
2023-04-27T07:39:54.521Z,100338.47
2023-04-27T07:42:56.652Z,100339.75
2023-04-27T07:45:58.749Z,100341.78
2023-04-27T07:49:01.110Z,100340.00
2023-04-27T07:52:04.821Z,100334.47
2023-04-27T07:55:07.406Z,100331.91
2023-04-27T07:58:09.414Z,100328.66
2023-04-27T08:01:11.724Z,100327.63
2023-04-27T08:04:18.284Z,100334.81
2023-04-27T08:07:20.571Z,100333.72
2023-04-27T08:10:23.464Z,100329.69
2023-04-27T08:13:25.631Z,100333.00
2023-04-27T08:16:28.096Z,100340.06
2023-04-27T08:19:30.131Z,100337.34
2023-04-27T08:22:32.710Z,100335.50
2023-04-27T08:25:37.116Z,100341.25
2023-04-27T08:28:39.120Z,100330.91
2023-04-27T08:31:41.207Z,100330.56
2023-04-27T08:34:45.017Z,100330.88
2023-04-27T08:37:46.985Z,100323.03
2023-04-27T08:40:49.259Z,100315.78
2023-04-27T08:43:52.127Z,100331.69
2023-04-27T08:46:54.133Z,100327.81
2023-04-27T08:49:56.238Z,100327.72
2023-04-27T08:52:58.191Z,100322.50
2023-04-27T08:56:00.327Z,100324.28
2023-04-27T08:59:04.656Z,100323.28
2023-04-27T09:02:18.092Z,100319.78
2023-04-27T09:05:22.526Z,100317.75
2023-04-27T09:08:24.634Z,100318.53
2023-04-27T09:11:34.069Z,100314.44
2023-04-27T09:14:36.887Z,100311.34
2023-04-27T09:17:39.047Z,100313.41
2023-04-27T09:20:54.027Z,100309.94
2023-04-27T09:23:56.911Z,100316.59
2023-04-27T09:27:00.688Z,100309.16
2023-04-27T09:30:13.321Z,100312.81
2023-04-27T09:33:15.498Z,100308.91
2023-04-27T09:36:17.546Z,100311.31
2023-04-27T09:39:20.271Z,100312.44
2023-04-27T09:42:22.530Z,100305.63
2023-04-27T09:45:25.959Z,100309.94
2023-04-27T09:48:28.250Z,100308.66
2023-04-27T09:51:30.291Z,100308.41
2023-04-27T09:54:34.522Z,100301.19
2023-04-27T09:57:49.062Z,100303.16
2023-04-27T10:01:03.612Z,100309.66
2023-04-27T10:04:18.071Z,100307.19
2023-04-27T10:07:20.764Z,100307.09
2023-04-27T10:10:23.037Z,100296.25
2023-04-27T10:13:27.153Z,100298.06
2023-04-27T10:16:43.637Z,100286.50
2023-04-27T10:19:58.859Z,100290.59
2023-04-27T10:23:01.130Z,100286.72
2023-04-27T10:26:07.740Z,100278.34
2023-04-27T10:29:10.408Z,100274.44
2023-04-27T10:32:18.945Z,100273.72
2023-04-27T10:35:22.942Z,100269.47
2023-04-27T10:38:30.393Z,100268.66
2023-04-27T10:41:36.417Z,100269.03
2023-04-27T10:44:39.143Z,100265.75
2023-04-27T10:47:45.697Z,100262.12
2023-04-27T10:50:47.839Z,100266.84
2023-04-27T10:53:52.918Z,100267.34
2023-04-27T10:57:02.217Z,100251.47
2023-04-27T11:00:05.809Z,100249.88
2023-04-27T11:03:22.951Z,100249.84
2023-04-27T11:06:25.505Z,100240.97
2023-04-27T11:09:27.784Z,100235.44
2023-04-27T11:12:32.309Z,100243.34
2023-04-27T11:15:46.991Z,100246.91
2023-04-27T11:18:49.030Z,100235.50
2023-04-27T11:21:51.619Z,100230.06
2023-04-27T11:24:53.778Z,100228.09
2023-04-27T11:27:56.038Z,100228.94
2023-04-27T11:31:01.017Z,100223.16
2023-04-27T11:34:04.058Z,100226.53
2023-04-27T11:37:17.805Z,100217.16
2023-04-27T11:40:20.741Z,100225.22
2023-04-27T11:43:26.198Z,100226.44
2023-04-27T11:46:28.199Z,100231.41
2023-04-27T11:49:30.606Z,100233.59
2023-04-27T11:52:36.488Z,100232.81
2023-04-27T11:55:41.208Z,100229.09
2023-04-27T11:58:46.282Z,100216.81
2023-04-27T12:01:48.957Z,100216.81
2023-04-27T12:04:51.991Z,100218.44
2023-04-27T12:07:54.086Z,100223.00
2023-04-27T12:10:56.720Z,100218.16
2023-04-27T12:14:03.049Z,100216.69
2023-04-27T12:17:05.109Z,100218.97
2023-04-27T12:20:07.984Z,100218.06
2023-04-27T12:23:09.996Z,100209.84
2023-04-27T12:26:15.019Z,100214.91
2023-04-27T12:29:17.982Z,100213.97
2023-04-27T12:32:20.349Z,100208.88
2023-04-27T12:35:22.493Z,100210.41
2023-04-27T12:38:24.486Z,100197.28
2023-04-27T12:41:26.749Z,100195.09
2023-04-27T12:44:28.716Z,100193.44
2023-04-27T12:50:38.109Z,100192.69
2023-04-27T12:53:40.067Z,100201.09
2023-04-27T12:56:42.389Z,100203.44
2023-04-27T12:59:44.316Z,100194.53
2023-04-27T13:02:46.522Z,100197.41
2023-04-27T13:05:48.719Z,100190.75
2023-04-27T13:08:51.297Z,100184.13
2023-04-27T13:11:54.294Z,100186.69
2023-04-27T13:14:57.142Z,100196.69
2023-04-27T13:17:59.368Z,100196.19
2023-04-27T13:21:02.764Z,100195.09
2023-04-27T13:24:05.424Z,100197.34
2023-04-27T13:27:07.717Z,100190.53
2023-04-27T13:30:10.258Z,100193.72
2023-04-27T13:33:22.483Z,100183.09
2023-04-27T13:36:24.977Z,100186.81
2023-04-27T13:39:26.882Z,100179.22
2023-04-27T13:42:29.752Z,100175.66
2023-04-27T13:45:32.437Z,100170.97
2023-04-27T13:48:34.727Z,100175.03
2023-04-27T13:51:36.893Z,100182.25
2023-04-27T13:54:38.820Z,100176.69
2023-04-27T13:57:40.746Z,100179.25
2023-04-27T14:00:42.859Z,100179.56
2023-04-27T14:03:45.138Z,100177.25
2023-04-27T14:06:47.204Z,100172.47
2023-04-27T14:09:49.619Z,100175.91
2023-04-27T14:12:51.637Z,100178.75
2023-04-27T14:15:53.565Z,100173.66
2023-04-27T14:18:56.030Z,100164.41
2023-04-27T14:21:59.172Z,100160.59
2023-04-27T14:25:01.108Z,100167.84
2023-04-27T14:28:05.246Z,100168.91
2023-04-27T14:31:07.644Z,100176.31
2023-04-27T14:34:09.938Z,100172.31
2023-04-27T14:37:11.851Z,100169.47
2023-04-27T14:40:14.190Z,100168.47
2023-04-27T14:43:17.898Z,100160.38
2023-04-27T14:46:21.383Z,100160.84
2023-04-27T14:49:24.221Z,100161.56
2023-04-27T14:52:26.276Z,100168.16
2023-04-27T14:55:29.537Z,100170.91
2023-04-27T14:58:34.543Z,100173.22
2023-04-27T15:01:37.184Z,100164.84
2023-04-27T15:04:40.142Z,100172.66
2023-04-27T15:07:42.130Z,100176.47
2023-04-27T15:10:45.016Z,100185.66
2023-04-27T15:13:47.011Z,100188.22
2023-04-27T15:16:49.654Z,100184.94
2023-04-27T15:19:52.487Z,100189.03
2023-04-27T15:22:56.321Z,100190.16
2023-04-27T15:25:59.500Z,100183.16
2023-04-27T15:29:02.141Z,100178.25
2023-04-27T15:32:05.433Z,100174.22
2023-04-27T15:35:08.459Z,100170.16
2023-04-27T15:38:13.212Z,100167.06
2023-04-27T15:41:16.297Z,100173.25
2023-04-27T15:44:18.892Z,100163.72
2023-04-27T15:47:21.394Z,100162.16
2023-04-27T15:50:23.839Z,100163.56
2023-04-27T15:53:25.895Z,100157.81
2023-04-27T15:56:30.028Z,100171.56
2023-04-27T15:59:32.746Z,100170.31
2023-04-27T16:02:34.899Z,100163.41
2023-04-27T16:05:37.029Z,100163.94
2023-04-27T16:08:39.072Z,100165.78
2023-04-27T16:11:42.774Z,100164.78
2023-04-27T16:14:44.682Z,100162.78
2023-04-27T16:17:46.830Z,100162.34
2023-04-27T16:20:48.819Z,100166.94
2023-04-27T16:23:51.765Z,100176.50
2023-04-27T16:26:53.839Z,100176.78
2023-04-27T16:29:56.479Z,100175.28
2023-04-27T16:32:58.536Z,100187.34
2023-04-27T16:36:00.799Z,100178.97
2023-04-27T16:39:05.133Z,100166.19
2023-04-27T16:42:07.239Z,100174.75
2023-04-27T16:45:10.948Z,100167.13
2023-04-27T16:48:13.222Z,100177.34
2023-04-27T16:51:15.436Z,100189.56
2023-04-27T16:54:17.574Z,100182.69
2023-04-27T16:57:20.705Z,100166.00
2023-04-27T17:00:22.942Z,100175.97
2023-04-27T17:03:26.330Z,100179.37
2023-04-27T17:06:30.407Z,100179.44
2023-04-27T17:09:32.319Z,100182.81
2023-04-27T17:12:35.979Z,100176.28
2023-04-27T17:15:38.308Z,100173.16
2023-04-27T17:18:41.183Z,100181.78
2023-04-27T17:21:43.502Z,100185.41
2023-04-27T17:24:46.047Z,100184.66
2023-04-27T17:27:48.258Z,100194.25
2023-04-27T17:30:50.502Z,100193.59
2023-04-27T17:33:52.572Z,100194.06
2023-04-27T17:36:54.538Z,100205.41
2023-04-27T17:39:56.581Z,100212.41
2023-04-27T17:42:58.886Z,100203.91
2023-04-27T17:46:01.022Z,100191.44
2023-04-27T17:49:03.045Z,100196.16
2023-04-27T17:52:05.535Z,100204.25
2023-04-27T17:55:07.894Z,100206.66
2023-04-27T17:58:11.310Z,100208.91
2023-04-27T18:01:13.777Z,100204.00
2023-04-27T18:04:16.155Z,100206.41
2023-04-27T18:07:19.358Z,100214.53
2023-04-27T18:10:21.916Z,100206.28
2023-04-27T18:13:24.113Z,100225.75
2023-04-27T18:16:26.568Z,100222.47
2023-04-27T18:19:28.691Z,100230.75
2023-04-27T18:22:31.253Z,100230.97
2023-04-27T18:25:33.652Z,100235.56
2023-04-27T18:28:37.968Z,100230.56
2023-04-27T18:31:39.965Z,100236.00
2023-04-27T18:34:42.987Z,100237.81
2023-04-27T18:37:48.660Z,100252.59
2023-04-27T18:40:53.764Z,100249.72
2023-04-27T18:44:03.647Z,100259.78
2023-04-27T18:47:07.748Z,100257.13
2023-04-27T18:50:11.264Z,100257.75
2023-04-27T18:53:13.654Z,100256.47
2023-04-27T18:56:16.262Z,100256.03
2023-04-27T18:59:18.970Z,100258.91
2023-04-27T19:02:21.394Z,100265.56
2023-04-27T19:05:23.597Z,100265.97
2023-04-27T19:08:25.838Z,100270.91
2023-04-27T19:11:29.259Z,100279.28
2023-04-27T19:14:32.031Z,100292.38
2023-04-27T19:17:35.640Z,100295.63
2023-04-27T19:20:39.170Z,100294.84
2023-04-27T19:23:43.359Z,100303.53
2023-04-27T19:26:46.872Z,100306.88
2023-04-27T19:29:54.081Z,100304.13
2023-04-27T19:32:56.291Z,100296.66
2023-04-27T19:35:58.716Z,100299.69
2023-04-27T19:39:01.221Z,100289.28
2023-04-27T19:42:03.941Z,100287.28
2023-04-27T19:45:07.430Z,100293.91
2023-04-27T19:48:09.529Z,100304.69
2023-04-27T19:51:15.050Z,100301.09
2023-04-27T19:54:18.197Z,100312.25
2023-04-27T19:57:22.131Z,100317.12
2023-04-27T20:00:24.380Z,100313.81
2023-04-27T20:03:26.543Z,100311.28
2023-04-27T20:06:29.269Z,100301.91
2023-04-27T20:09:31.884Z,100305.66
2023-04-27T20:12:44.059Z,100303.97
2023-04-27T20:15:54.195Z,100303.31
2023-04-27T20:18:56.424Z,100294.78
2023-04-27T20:21:59.254Z,100294.53
2023-04-27T20:25:02.728Z,100293.94
2023-04-27T20:28:04.855Z,100294.97
2023-04-27T20:31:07.395Z,100295.84
2023-04-27T20:34:09.830Z,100303.94
2023-04-27T20:37:11.812Z,100302.22
2023-04-27T20:40:17.809Z,100309.75
2023-04-27T20:43:21.309Z,100316.50
2023-04-27T20:46:23.348Z,100323.66
2023-04-27T20:49:34.508Z,100315.97
2023-04-27T20:52:37.401Z,100313.91
2023-04-27T20:55:39.491Z,100316.22
2023-04-27T20:58:41.528Z,100312.13
2023-04-27T21:01:43.528Z,100316.38
2023-04-27T21:04:46.077Z,100325.91
2023-04-27T21:07:48.130Z,100324.03
2023-04-27T21:10:50.681Z,100328.81
2023-04-27T21:13:53.055Z,100331.72
2023-04-27T21:16:55.103Z,100333.16
2023-04-27T21:19:58.201Z,100337.19
2023-04-27T21:23:00.766Z,100339.31
2023-04-27T21:26:02.688Z,100334.53
2023-04-27T21:29:06.053Z,100331.78
2023-04-27T21:32:08.269Z,100345.44
2023-04-27T21:35:10.862Z,100340.38
2023-04-27T21:38:12.852Z,100339.38
2023-04-27T21:41:16.724Z,100341.66
2023-04-27T21:44:19.272Z,100340.53
2023-04-27T21:47:21.408Z,100339.47
2023-04-27T21:50:23.809Z,100346.28
2023-04-27T21:53:26.384Z,100352.34
2023-04-27T21:56:28.805Z,100357.62
2023-04-27T21:59:30.953Z,100361.16
2023-04-27T22:02:48.552Z,100362.00
2023-04-27T22:05:50.963Z,100359.31
2023-04-27T22:08:53.284Z,100353.94
2023-04-27T22:11:55.240Z,100346.53
2023-04-27T22:14:57.356Z,100354.44
2023-04-27T22:17:59.547Z,100357.03
2023-04-27T22:21:01.604Z,100367.84
2023-04-27T22:24:03.767Z,100368.63
2023-04-27T22:27:05.812Z,100374.69
2023-04-27T22:30:09.054Z,100375.69
2023-04-27T22:33:11.572Z,100380.88
2023-04-27T22:36:13.827Z,100383.00
2023-04-27T22:39:16.023Z,100394.25
2023-04-27T22:42:18.008Z,100395.66
2023-04-27T22:45:20.069Z,100394.44
2023-04-27T22:48:22.217Z,100390.88
2023-04-27T22:51:27.323Z,100391.94
2023-04-27T22:54:29.596Z,100390.75
2023-04-27T22:57:31.631Z,100383.16
2023-04-27T23:00:33.799Z,100387.38
2023-04-27T23:03:36.093Z,100381.31
2023-04-27T23:06:38.262Z,100387.59
2023-04-27T23:09:40.194Z,100383.09
2023-04-27T23:12:42.274Z,100378.94
2023-04-27T23:15:44.228Z,100379.59
2023-04-27T23:18:46.968Z,100375.34
2023-04-27T23:21:49.013Z,100377.19
2023-04-27T23:24:51.896Z,100376.19
2023-04-27T23:27:53.917Z,100378.22
2023-04-27T23:30:55.988Z,100378.94
2023-04-27T23:33:58.336Z,100369.22
2023-04-27T23:37:01.069Z,100360.19
2023-04-27T23:40:03.157Z,100347.81
2023-04-27T23:43:05.141Z,100358.16
2023-04-27T23:46:07.253Z,100343.16
2023-04-27T23:49:09.449Z,100335.63
2023-04-27T23:52:12.193Z,100332.41
2023-04-27T23:55:14.754Z,100342.13
2023-04-27T23:58:17.046Z,100358.38
